createdAt,value
2023-01-21T00:00:09.597Z,-6.39
2023-01-21T00:02:11.441Z,-6.3
2023-01-21T00:04:13.218Z,-6.38
2023-01-21T00:06:14.389Z,-6.54
2023-01-21T00:08:16.365Z,-6.63
2023-01-21T00:11:02.234Z,-6.67
2023-01-21T00:13:03.864Z,-6.68
2023-01-21T00:15:05.933Z,-6.71
2023-01-21T00:17:07.544Z,-6.67
2023-01-21T00:19:09.695Z,-6.62
2023-01-21T00:21:11.373Z,-6.69
2023-01-21T00:23:13.441Z,-6.81
2023-01-21T00:25:15.391Z,-6.81
2023-01-21T00:27:17.104Z,-6.89
2023-01-21T00:29:18.466Z,-7
2023-01-21T00:31:19.726Z,-7.01
2023-01-21T00:33:21.127Z,-6.74
2023-01-21T00:35:22.987Z,-6.56
2023-01-21T00:37:24.892Z,-6.75
2023-01-21T00:39:26.818Z,-6.72
2023-01-21T00:41:28.182Z,-6.67
2023-01-21T00:43:29.664Z,-6.65
2023-01-21T00:45:31.452Z,-6.59
2023-01-21T00:47:33.571Z,-6.52
2023-01-21T00:49:35.644Z,-6.44
2023-01-21T00:51:37.276Z,-6.36
2023-01-21T00:53:39.361Z,-6.37
2023-01-21T00:55:41.546Z,-6.38
2023-01-21T00:57:43.309Z,-6.34
2023-01-21T00:59:44.710Z,-6.29
2023-01-21T01:01:46.512Z,-6.3
2023-01-21T01:03:47.943Z,-6.3
2023-01-21T01:05:49.453Z,-6.27
2023-01-21T01:07:50.560Z,-6.22
2023-01-21T01:09:52.120Z,-6.18
2023-01-21T01:11:53.994Z,-6.16
2023-01-21T01:13:55.225Z,-6.14
2023-01-21T01:15:57.076Z,-6.13
2023-01-21T01:17:59.137Z,-6.05
2023-01-21T01:20:00.826Z,-5.99
2023-01-21T01:22:02.362Z,-5.96
2023-01-21T01:24:04.143Z,-5.94
2023-01-21T01:26:05.811Z,-5.92
2023-01-21T01:28:07.843Z,-5.94
2023-01-21T01:30:09.542Z,-5.9
2023-01-21T01:32:10.689Z,-5.93
2023-01-21T01:34:12.583Z,-5.9
2023-01-21T01:36:13.592Z,-5.84
2023-01-21T01:38:15.634Z,-5.92
2023-01-21T01:40:17.852Z,-6
2023-01-21T01:42:19.057Z,-6.03
2023-01-21T01:44:20.392Z,-6.11
2023-01-21T01:46:22.400Z,-6.12
2023-01-21T01:48:23.766Z,-6.09
2023-01-21T01:50:25.187Z,-6.09
2023-01-21T01:52:26.806Z,-6.1
2023-01-21T01:54:28.087Z,-6.16
2023-01-21T01:56:29.551Z,-6.06
2023-01-21T01:58:31.504Z,-5.98
2023-01-21T02:00:33.159Z,-5.98
2023-01-21T02:02:35.289Z,-5.98
2023-01-21T02:04:36.810Z,-5.99
2023-01-21T02:06:38.151Z,-5.95
2023-01-21T02:08:39.382Z,-5.91
2023-01-21T02:10:40.556Z,-5.92
2023-01-21T02:12:42.375Z,-5.86
2023-01-21T02:14:43.748Z,-5.78
2023-01-21T02:16:45.006Z,-5.73
2023-01-21T02:18:46.396Z,-5.76
2023-01-21T02:20:48.314Z,-5.76
2023-01-21T02:22:49.972Z,-5.64
2023-01-21T02:24:51.284Z,-5.66
2023-01-21T02:26:53.234Z,-5.65
2023-01-21T02:28:54.811Z,-5.66
2023-01-21T02:30:56.481Z,-5.67
2023-01-21T02:33:06.115Z,-5.67
2023-01-21T02:34:59.366Z,-5.62
2023-01-21T02:37:00.947Z,-5.57
2023-01-21T02:39:02.802Z,-5.54
2023-01-21T02:41:04.191Z,-5.47
2023-01-21T02:43:06.236Z,-5.38
2023-01-21T02:45:07.831Z,-5.35
2023-01-21T02:47:08.940Z,-5.31
2023-01-21T02:49:10.558Z,-5.33
2023-01-21T02:51:12.483Z,-5.29
2023-01-21T02:53:13.598Z,-5.24
2023-01-21T02:55:14.867Z,-5.26
2023-01-21T02:57:16.573Z,-5.26
2023-01-21T02:59:17.840Z,-5.25
2023-01-21T03:01:19.713Z,-5.3
2023-01-21T03:03:21.485Z,-5.25
2023-01-21T03:05:23.438Z,-5.24
2023-01-21T03:07:25.006Z,-5.23
2023-01-21T03:09:27.074Z,-5.22
2023-01-21T03:11:28.796Z,-5.21
2023-01-21T03:13:30.251Z,-5.24
2023-01-21T03:15:31.404Z,-5.22
2023-01-21T03:17:33.187Z,-5.12
2023-01-21T03:19:34.752Z,-5.07
2023-01-21T03:21:36.067Z,-5.04
2023-01-21T03:23:37.435Z,-4.99
2023-01-21T03:25:39.529Z,-4.95
2023-01-21T03:27:41.535Z,-4.96
2023-01-21T03:29:43.602Z,-4.95
2023-01-21T03:31:45.728Z,-4.92
2023-01-21T03:33:47.126Z,-4.84
2023-01-21T03:35:48.956Z,-4.8
2023-01-21T03:37:50.788Z,-4.8
2023-01-21T03:39:52.742Z,-4.77
2023-01-21T03:42:01.943Z,-4.72
2023-01-21T03:43:55.928Z,-4.68
2023-01-21T03:45:57.745Z,-4.67
2023-01-21T03:47:59.347Z,-4.62
2023-01-21T03:50:01.172Z,-4.65
2023-01-21T03:52:02.506Z,-4.67
2023-01-21T03:54:04.683Z,-4.6
2023-01-21T03:56:06.443Z,-4.61
2023-01-21T03:58:07.803Z,-4.62
2023-01-21T04:00:09.592Z,-4.58
2023-01-21T04:02:11.412Z,-4.6
2023-01-21T04:04:12.907Z,-4.62
2023-01-21T04:06:14.720Z,-4.66
2023-01-21T04:08:16.498Z,-4.65
2023-01-21T04:10:17.914Z,-4.58
2023-01-21T04:12:19.037Z,-4.53
2023-01-21T04:14:20.422Z,-4.53
2023-01-21T04:16:22.088Z,-4.49
2023-01-21T04:18:23.151Z,-4.46
2023-01-21T04:20:24.395Z,-4.4
2023-01-21T04:22:25.581Z,-4.38
2023-01-21T04:24:27.369Z,-4.41
2023-01-21T04:26:29.083Z,-4.36
2023-01-21T04:28:30.511Z,-4.35
2023-01-21T04:32:33.677Z,-4.33
2023-01-21T04:34:35.184Z,-4.27
2023-01-21T04:36:36.299Z,-4.26
2023-01-21T04:38:37.591Z,-4.25
2023-01-21T04:40:39.097Z,-4.26
2023-01-21T04:42:40.328Z,-4.25
2023-01-21T04:44:42.231Z,-4.28
2023-01-21T04:46:43.420Z,-4.3
2023-01-21T04:48:44.940Z,-4.31
2023-01-21T04:50:46.344Z,-4.31
2023-01-21T04:52:47.834Z,-4.3
2023-01-21T04:54:49.357Z,-4.29
2023-01-21T04:56:50.730Z,-4.29
2023-01-21T04:58:52.331Z,-4.29
2023-01-21T05:00:54.402Z,-4.27
2023-01-21T05:02:56.468Z,-4.27
2023-01-21T05:04:57.820Z,-4.27
2023-01-21T05:06:59.936Z,-4.25
2023-01-21T05:09:01.785Z,-4.22
2023-01-21T05:11:02.996Z,-4.26
2023-01-21T05:13:04.674Z,-4.22
2023-01-21T05:15:06.153Z,-4.15
2023-01-21T05:17:07.299Z,-4.07
2023-01-21T05:19:08.700Z,-3.98
2023-01-21T05:21:10.655Z,-3.98
2023-01-21T05:23:12.394Z,-3.98
2023-01-21T05:25:13.612Z,-4.04
2023-01-21T05:27:14.824Z,-4.06
2023-01-21T05:29:16.403Z,-4.02
2023-01-21T05:31:17.784Z,-3.83
2023-01-21T05:33:19.403Z,-3.62
2023-01-21T05:35:20.904Z,-3.63
2023-01-21T05:37:22.083Z,-3.55
2023-01-21T05:39:23.401Z,-3.73
2023-01-21T05:41:24.595Z,-3.82
2023-01-21T05:43:25.860Z,-3.8
2023-01-21T05:45:27.383Z,-3.7
2023-01-21T05:47:37.398Z,-3.5
2023-01-21T05:49:30.869Z,-3.48
2023-01-21T05:51:31.973Z,-3.5
2023-01-21T05:53:34.007Z,-3.52
2023-01-21T05:55:35.609Z,-3.53
2023-01-21T05:57:37.387Z,-3.59
2023-01-21T05:59:38.552Z,-3.6
2023-01-21T06:01:40.596Z,-3.62
2023-01-21T06:03:42.080Z,-3.57
2023-01-21T06:05:43.223Z,-3.49
2023-01-21T06:07:45.010Z,-3.43
2023-01-21T06:09:46.175Z,-3.45
2023-01-21T06:11:47.975Z,-3.48
2023-01-21T06:13:49.427Z,-3.48
2023-01-21T06:15:50.848Z,-3.51
2023-01-21T06:17:52.203Z,-3.47
2023-01-21T06:19:53.679Z,-3.49
2023-01-21T06:21:55.572Z,-3.48
2023-01-21T06:23:57.053Z,-3.43
2023-01-21T06:25:58.369Z,-3.5
2023-01-21T06:28:00.009Z,-3.52
2023-01-21T06:30:01.612Z,-3.55
2023-01-21T06:32:02.847Z,-3.55
2023-01-21T06:34:04.350Z,-3.56
2023-01-21T06:36:06.380Z,-3.55
2023-01-21T06:38:08.431Z,-3.55
2023-01-21T06:40:09.660Z,-3.56
2023-01-21T06:42:11.022Z,-3.58
2023-01-21T06:44:13.019Z,-3.56
2023-01-21T06:46:14.260Z,-3.6
2023-01-21T06:48:15.367Z,-3.57
2023-01-21T06:50:17.511Z,-3.58
2023-01-21T06:52:19.063Z,-3.56
2023-01-21T06:54:20.342Z,-3.55
2023-01-21T06:57:06.292Z,-3.52
2023-01-21T06:59:08.078Z,-3.59
2023-01-21T07:01:10.040Z,-3.62
2023-01-21T07:03:11.257Z,-3.65
2023-01-21T07:05:13.235Z,-3.67
2023-01-21T07:07:14.756Z,-3.71
2023-01-21T07:09:16.516Z,-3.71
2023-01-21T07:11:18.067Z,-3.75
2023-01-21T07:13:19.541Z,-3.79
2023-01-21T07:15:21.234Z,-3.81
2023-01-21T07:17:23.239Z,-3.84
2023-01-21T07:19:24.628Z,-3.88
2023-01-21T07:21:26.661Z,-3.88
2023-01-21T07:23:28.098Z,-3.86
2023-01-21T07:25:29.893Z,-3.86
2023-01-21T07:27:31.038Z,-3.89
2023-01-21T07:29:32.897Z,-3.93
2023-01-21T07:31:34.599Z,-3.93
2023-01-21T07:33:36.349Z,-3.93
2023-01-21T07:35:37.955Z,-3.94
2023-01-21T07:37:39.408Z,-3.95
2023-01-21T07:39:40.557Z,-3.95
2023-01-21T07:41:42.469Z,-3.9
2023-01-21T07:43:44.015Z,-3.94
2023-01-21T07:45:45.542Z,-3.95
2023-01-21T07:47:46.940Z,-3.9
2023-01-21T07:49:48.589Z,-3.86
2023-01-21T07:51:50.069Z,-3.86
2023-01-21T07:53:51.532Z,-3.83
2023-01-21T07:55:53.427Z,-3.78
2023-01-21T07:57:54.985Z,-3.75
2023-01-21T07:59:56.265Z,-3.69
2023-01-21T08:01:57.539Z,-3.66
2023-01-21T08:03:58.882Z,-3.59
2023-01-21T08:06:00.360Z,-3.59
2023-01-21T08:08:01.511Z,-3.6
2023-01-21T08:10:03.562Z,-3.51
2023-01-21T08:12:05.377Z,-3.54
2023-01-21T08:14:07.326Z,-3.47
2023-01-21T08:16:09.302Z,-3.5
2023-01-21T08:18:10.543Z,-3.52
2023-01-21T08:20:12.320Z,-3.55
2023-01-21T08:22:13.633Z,-3.55
2023-01-21T08:24:15.221Z,-3.57
2023-01-21T08:26:16.564Z,-3.52
2023-01-21T08:28:17.855Z,-3.52
2023-01-21T08:30:19.446Z,-3.47
2023-01-21T08:32:21.367Z,-3.46
2023-01-21T08:34:23.156Z,-3.48
2023-01-21T08:36:24.687Z,-3.48
2023-01-21T08:38:26.387Z,-3.45
2023-01-21T08:40:27.717Z,-3.29
2023-01-21T08:42:29.301Z,-3.3
2023-01-21T08:44:30.560Z,-3.28
2023-01-21T08:46:32.183Z,-3.2
2023-01-21T08:48:34.040Z,-3.08
2023-01-21T08:50:35.305Z,-3.19
2023-01-21T08:52:36.770Z,-3.05
2023-01-21T08:54:38.592Z,-3
2023-01-21T08:56:40.578Z,-3.24
2023-01-21T08:58:42.341Z,-3.21
2023-01-21T09:00:44.087Z,-2.96
2023-01-21T09:02:45.738Z,-3.03
2023-01-21T09:04:46.999Z,-3.17
2023-01-21T09:06:48.539Z,-3.08
2023-01-21T09:08:49.770Z,-2.99
2023-01-21T09:10:51.266Z,-2.78
2023-01-21T09:12:52.591Z,-2.94
2023-01-21T09:14:54.169Z,-3
2023-01-21T09:16:55.529Z,-2.78
2023-01-21T09:18:56.975Z,-2.77
2023-01-21T09:20:58.334Z,-2.74
2023-01-21T09:22:59.655Z,-2.69
2023-01-21T09:25:01.588Z,-2.51
2023-01-21T09:27:02.917Z,-2.39
2023-01-21T09:29:04.914Z,-2.3
2023-01-21T09:31:06.177Z,-2.39
2023-01-21T09:33:07.580Z,-2.53
2023-01-21T09:35:08.843Z,-2.66
2023-01-21T09:37:10.429Z,-2.53
2023-01-21T09:39:12.355Z,-2.45
2023-01-21T09:41:14.243Z,-2.41
2023-01-21T09:43:15.290Z,-2.47
2023-01-21T09:45:17.015Z,-2.32
2023-01-21T09:47:18.117Z,-2.21
2023-01-21T09:49:19.498Z,-2.09
2023-01-21T09:51:21.411Z,-2.05
2023-01-21T09:53:22.742Z,-2.09
2023-01-21T09:55:24.586Z,-2.18
2023-01-21T09:57:26.287Z,-2.01
2023-01-21T09:59:28.336Z,-1.98
2023-01-21T10:01:30.158Z,-1.88
2023-01-21T10:03:31.541Z,-1.91
2023-01-21T10:05:33.435Z,-1.93
2023-01-21T10:07:35.276Z,-1.85
2023-01-21T10:09:37.000Z,-1.73
2023-01-21T10:11:38.835Z,-1.59
2023-01-21T10:13:40.760Z,-1.66
2023-01-21T10:15:42.223Z,-1.45
2023-01-21T10:17:43.719Z,-1.44
2023-01-21T10:19:45.680Z,-1.44
2023-01-21T10:21:47.016Z,-1.22
2023-01-21T10:23:48.319Z,-1.16
2023-01-21T10:25:49.947Z,-0.98
2023-01-21T10:27:50.967Z,-1.18
2023-01-21T10:29:52.694Z,-1.2
2023-01-21T10:31:54.281Z,-1.25
2023-01-21T10:33:55.554Z,-1.22
2023-01-21T10:35:57.255Z,-1.11
2023-01-21T10:37:58.682Z,-1.14
2023-01-21T10:40:00.449Z,-1.1
2023-01-21T10:42:02.143Z,-0.96
2023-01-21T10:44:03.231Z,-1.04
2023-01-21T10:46:05.139Z,-0.98
2023-01-21T10:48:06.272Z,-0.88
2023-01-21T10:50:07.905Z,-0.86
2023-01-21T10:52:09.834Z,-0.83
2023-01-21T10:54:11.855Z,-0.93
2023-01-21T10:56:13.488Z,-0.89
2023-01-21T10:58:15.057Z,-0.87
2023-01-21T11:00:16.436Z,-0.92
2023-01-21T11:02:17.873Z,-0.97
2023-01-21T11:04:19.767Z,-1
2023-01-21T11:06:21.302Z,-0.99
2023-01-21T11:08:22.338Z,-0.99
2023-01-21T11:10:23.611Z,-0.96
2023-01-21T11:12:25.173Z,-1.02
2023-01-21T11:14:26.569Z,-1.02
2023-01-21T11:16:28.374Z,-1.08
2023-01-21T11:18:30.142Z,-1.08
2023-01-21T11:20:31.738Z,-1.02
2023-01-21T11:22:33.808Z,-1.05
2023-01-21T11:24:35.442Z,-1.13
2023-01-21T11:26:37.017Z,-1.18
2023-01-21T11:28:38.218Z,-1.14
2023-01-21T11:30:50.431Z,-1.05
2023-01-21T11:32:41.774Z,-1.14
2023-01-21T11:34:42.967Z,-1.12
2023-01-21T11:36:44.420Z,-1.04
2023-01-21T11:38:45.675Z,-1.05
2023-01-21T11:40:47.641Z,-0.97
2023-01-21T11:42:49.665Z,-1
2023-01-21T11:44:51.077Z,-0.99
2023-01-21T11:46:52.222Z,-0.99
2023-01-21T11:48:54.230Z,-0.95
2023-01-21T11:50:56.119Z,-0.98
2023-01-21T11:52:57.654Z,-0.97
2023-01-21T11:54:59.596Z,-0.96
2023-01-21T11:57:01.213Z,-0.83
2023-01-21T11:59:02.456Z,-0.91
2023-01-21T12:01:03.919Z,-0.85
2023-01-21T12:03:05.634Z,-0.9
2023-01-21T12:05:07.459Z,-0.8
2023-01-21T12:07:09.029Z,-0.75
2023-01-21T12:09:10.471Z,-0.66
2023-01-21T12:11:12.466Z,-0.6
2023-01-21T12:13:13.847Z,-0.72
2023-01-21T12:15:15.367Z,-0.62
2023-01-21T12:17:16.435Z,-0.65
2023-01-21T12:21:19.016Z,-0.65
2023-01-21T12:23:20.714Z,-0.62
2023-01-21T12:25:22.240Z,-0.58
2023-01-21T12:27:24.166Z,-0.62
2023-01-21T12:29:25.901Z,-0.67
2023-01-21T12:31:27.363Z,-0.63
2023-01-21T12:33:29.172Z,-0.62
2023-01-21T12:35:30.962Z,-0.7
2023-01-21T12:37:32.162Z,-0.72
2023-01-21T12:39:33.478Z,-0.84
2023-01-21T12:41:34.869Z,-0.77
2023-01-21T12:43:36.865Z,-0.79
2023-01-21T12:45:38.864Z,-0.67
2023-01-21T12:47:40.566Z,-0.72
2023-01-21T12:49:42.529Z,-0.69
2023-01-21T12:51:44.495Z,-0.52
2023-01-21T12:53:45.785Z,-0.61
2023-01-21T12:55:47.263Z,-0.47
2023-01-21T12:57:49.246Z,-0.59
2023-01-21T12:59:50.673Z,-0.54
2023-01-21T13:03:53.645Z,-0.5
2023-01-21T13:05:55.693Z,-0.49
2023-01-21T13:07:57.137Z,-0.56
2023-01-21T13:09:58.514Z,-0.53
2023-01-21T13:11:59.949Z,-0.53
2023-01-21T13:14:01.931Z,-0.55
2023-01-21T13:16:03.643Z,-0.58
2023-01-21T13:18:05.235Z,-0.63
2023-01-21T13:20:06.554Z,-0.63
2023-01-21T13:22:07.645Z,-0.74
2023-01-21T13:24:09.211Z,-0.82
2023-01-21T13:26:10.603Z,-0.76
2023-01-21T13:28:11.949Z,-0.75
2023-01-21T13:30:13.059Z,-0.74
2023-01-21T13:32:14.565Z,-0.65
2023-01-21T13:34:16.509Z,-0.66
2023-01-21T13:36:18.525Z,-0.66
2023-01-21T13:38:20.156Z,-0.7
2023-01-21T13:40:22.064Z,-0.69
2023-01-21T13:41:05.971Z,-0.59
2023-01-21T13:43:07.597Z,-0.57
2023-01-21T13:45:08.726Z,-0.44
2023-01-21T13:47:10.409Z,-0.38
2023-01-21T13:49:11.577Z,-0.41
2023-01-21T13:51:13.366Z,-0.2
2023-01-21T13:53:15.329Z,-0.26
2023-01-21T13:55:17.001Z,-0.4
2023-01-21T13:57:18.748Z,-0.59
2023-01-21T13:59:19.932Z,-0.58
2023-01-21T14:01:21.316Z,-0.68
2023-01-21T14:03:23.118Z,-0.77
2023-01-21T14:05:24.726Z,-0.8
2023-01-21T14:07:26.748Z,-0.75
2023-01-21T14:09:28.249Z,-0.78
2023-01-21T14:11:29.929Z,-0.89
2023-01-21T14:13:31.713Z,-0.95
2023-01-21T14:15:33.218Z,-0.94
2023-01-21T14:17:34.124Z,-0.95
2023-01-21T14:19:35.585Z,-0.98
2023-01-21T14:21:37.140Z,-0.93
2023-01-21T14:23:39.067Z,-0.96
2023-01-21T14:25:40.868Z,-0.99
2023-01-21T14:27:42.815Z,-1.02
2023-01-21T14:29:44.596Z,-1.02
2023-01-21T14:31:45.711Z,-1.04
2023-01-21T14:33:47.315Z,-1.05
2023-01-21T14:35:48.483Z,-1.11
2023-01-21T14:37:50.008Z,-1.03
2023-01-21T14:39:51.605Z,-1.12
2023-01-21T14:41:52.731Z,-1.16
2023-01-21T14:43:53.777Z,-1.17
2023-01-21T14:45:54.970Z,-1.14
2023-01-21T14:47:56.299Z,-1.15
2023-01-21T14:49:57.677Z,-1.14
2023-01-21T14:51:59.506Z,-1.08
2023-01-21T14:54:00.714Z,-1.03
2023-01-21T14:56:01.946Z,-1.08
2023-01-21T14:58:03.356Z,-1.13
2023-01-21T15:00:04.659Z,-1.13
2023-01-21T15:02:13.855Z,-1.12
2023-01-21T15:04:07.676Z,-1.15
2023-01-21T15:06:09.034Z,-1.11
2023-01-21T15:08:10.398Z,-1.17
2023-01-21T15:10:12.397Z,-1.1
2023-01-21T15:12:13.519Z,-1.11
2023-01-21T15:14:15.134Z,-1.11
2023-01-21T15:16:16.932Z,-1.08
2023-01-21T15:18:18.756Z,-1.11
2023-01-21T15:20:20.669Z,-1.14
2023-01-21T15:22:22.674Z,-1.11
2023-01-21T15:24:24.631Z,-1.12
2023-01-21T15:26:26.281Z,-1.15
2023-01-21T15:28:27.557Z,-1.15
2023-01-21T15:30:29.439Z,-1.14
2023-01-21T15:32:31.190Z,-1.16
2023-01-21T15:34:33.176Z,-1.14
2023-01-21T15:36:35.012Z,-1.13
2023-01-21T15:38:36.490Z,-1.13
2023-01-21T15:40:38.536Z,-1.1
2023-01-21T15:42:40.155Z,-1.12
2023-01-21T15:44:50.803Z,-1.16
2023-01-21T15:46:43.277Z,-1.17
2023-01-21T15:48:44.589Z,-1.16
2023-01-21T15:50:45.822Z,-1.17
2023-01-21T15:52:46.864Z,-1.13
2023-01-21T15:54:47.966Z,-1.1
2023-01-21T15:56:49.676Z,-1.06
2023-01-21T15:58:51.411Z,-1.02
2023-01-21T16:00:52.706Z,-0.99
2023-01-21T16:02:54.214Z,-0.95
2023-01-21T16:04:56.082Z,-0.95
2023-01-21T16:06:57.396Z,-0.98
2023-01-21T16:09:00.354Z,-0.95
2023-01-21T16:11:01.030Z,-0.92
2023-01-21T16:13:02.129Z,-0.94
2023-01-21T16:15:03.777Z,-0.97
2023-01-21T16:17:05.401Z,-0.94
2023-01-21T16:19:07.423Z,-0.84
2023-01-21T16:21:09.329Z,-0.88
2023-01-21T16:23:10.387Z,-0.88
2023-01-21T16:25:11.915Z,-0.9
2023-01-21T16:27:13.867Z,-0.87
2023-01-21T16:29:14.923Z,-0.86
2023-01-21T16:31:16.298Z,-0.86
2023-01-21T16:33:17.704Z,-0.89
2023-01-21T16:35:19.518Z,-0.86
2023-01-21T16:37:20.695Z,-0.89
2023-01-21T16:39:22.478Z,-0.92
2023-01-21T16:41:23.558Z,-0.89
2023-01-21T16:43:25.107Z,-0.93
2023-01-21T16:45:27.155Z,-0.93
2023-01-21T16:47:28.391Z,-0.93
2023-01-21T16:49:30.075Z,-0.92
2023-01-21T16:51:31.921Z,-0.86
2023-01-21T16:53:33.890Z,-0.88
2023-01-21T16:55:35.761Z,-0.84
2023-01-21T16:57:37.780Z,-0.85
2023-01-21T16:59:38.851Z,-0.88
2023-01-21T17:01:39.988Z,-0.87
2023-01-21T17:03:42.040Z,-0.9
2023-01-21T17:05:43.531Z,-0.93
2023-01-21T17:07:44.726Z,-0.9
2023-01-21T17:09:46.657Z,-0.87
2023-01-21T17:11:47.855Z,-0.83
2023-01-21T17:13:49.590Z,-0.86
2023-01-21T17:15:50.822Z,-0.87
2023-01-21T17:17:51.994Z,-0.84
2023-01-21T17:19:53.757Z,-0.84
2023-01-21T17:21:55.633Z,-0.84
2023-01-21T17:23:56.900Z,-0.81
2023-01-21T17:25:58.128Z,-0.79
2023-01-21T17:27:59.284Z,-0.79
2023-01-21T17:30:00.662Z,-0.78
2023-01-21T17:32:01.906Z,-0.8
2023-01-21T17:34:03.742Z,-0.8
2023-01-21T17:36:05.159Z,-0.84
2023-01-21T17:38:06.803Z,-0.83
2023-01-21T17:40:08.838Z,-0.82
2023-01-21T17:42:09.936Z,-0.81
2023-01-21T17:44:11.309Z,-0.87
2023-01-21T17:46:13.276Z,-0.86
2023-01-21T17:48:15.017Z,-0.82
2023-01-21T17:50:16.769Z,-0.81
2023-01-21T17:52:18.423Z,-0.83
2023-01-21T17:54:19.815Z,-0.81
2023-01-21T17:56:21.294Z,-0.77
2023-01-21T17:58:23.251Z,-0.8
2023-01-21T18:00:24.689Z,-0.8
2023-01-21T18:02:26.682Z,-0.8
2023-01-21T18:04:28.122Z,-0.8
2023-01-21T18:06:29.349Z,-0.83
2023-01-21T18:08:30.914Z,-0.83
2023-01-21T18:12:34.055Z,-0.8
2023-01-21T18:14:35.300Z,-0.84
2023-01-21T18:16:36.940Z,-0.83
2023-01-21T18:18:38.050Z,-0.84
2023-01-21T18:20:39.436Z,-0.8
2023-01-21T18:22:40.567Z,-0.79
2023-01-21T18:24:42.237Z,-0.88
2023-01-21T18:26:43.534Z,-0.85
2023-01-21T18:28:44.947Z,-0.74
2023-01-21T18:30:46.990Z,-0.84
2023-01-21T18:32:48.153Z,-0.87
2023-01-21T18:34:49.520Z,-0.9
2023-01-21T18:36:51.478Z,-0.92
2023-01-21T18:38:53.324Z,-0.95
2023-01-21T18:40:55.122Z,-0.9
2023-01-21T18:42:57.003Z,-0.91
2023-01-21T18:44:58.478Z,-0.89
2023-01-21T18:46:59.728Z,-0.88
2023-01-21T18:49:01.498Z,-0.89
2023-01-21T18:51:03.104Z,-0.93
2023-01-21T18:55:05.919Z,-0.94
2023-01-21T18:57:07.042Z,-0.95
2023-01-21T18:59:08.738Z,-0.95
2023-01-21T19:01:21.713Z,-0.94
2023-01-21T19:03:11.832Z,-0.94
2023-01-21T19:05:13.869Z,-0.93
2023-01-21T19:07:15.212Z,-0.93
2023-01-21T19:09:17.204Z,-0.94
2023-01-21T19:11:18.782Z,-0.94
2023-01-21T19:13:19.867Z,-0.95
2023-01-21T19:15:21.600Z,-0.95
2023-01-21T19:17:22.889Z,-0.93
2023-01-21T19:19:23.931Z,-0.92
2023-01-21T19:21:25.597Z,-0.93
2023-01-21T19:23:26.919Z,-0.91
2023-01-21T19:25:28.225Z,-0.92
2023-01-21T19:27:29.382Z,-0.92
2023-01-21T19:29:30.806Z,-0.93
2023-01-21T19:31:32.016Z,-0.98
2023-01-21T19:33:33.546Z,-0.97
2023-01-21T19:35:34.738Z,-0.97
2023-01-21T19:37:36.564Z,-1
2023-01-21T19:39:37.688Z,-0.98
2023-01-21T19:41:39.194Z,-0.98
2023-01-21T19:43:40.488Z,-0.96
2023-01-21T19:45:41.905Z,-0.99
2023-01-21T19:47:43.411Z,-0.97
2023-01-21T19:49:44.543Z,-0.88
2023-01-21T19:51:46.121Z,-0.89
2023-01-21T19:53:47.383Z,-0.92
2023-01-21T19:55:49.108Z,-0.94
2023-01-21T19:57:50.668Z,-0.95
2023-01-21T19:59:51.970Z,-0.97
2023-01-21T20:01:53.374Z,-0.98
2023-01-21T20:04:00.434Z,-0.98
2023-01-21T20:05:56.575Z,-0.99
2023-01-21T20:07:58.522Z,-0.99
2023-01-21T20:09:59.885Z,-1.02
2023-01-21T20:12:03.260Z,-1.05
2023-01-21T20:14:03.036Z,-1.04
2023-01-21T20:16:04.496Z,-1.06
2023-01-21T20:18:06.049Z,-1.07
2023-01-21T20:20:07.136Z,-1.09
2023-01-21T20:22:08.565Z,-1.11
2023-01-21T20:24:10.542Z,-1.12
2023-01-21T20:26:11.700Z,-1.12
2023-01-21T20:28:57.368Z,-1.13
2023-01-21T20:30:58.814Z,-1.14
2023-01-21T20:32:59.980Z,-1.13
2023-01-21T20:35:01.366Z,-1.12
2023-01-21T20:37:02.717Z,-1.15
2023-01-21T20:39:04.074Z,-1.11
2023-01-21T20:41:05.645Z,-1.12
2023-01-21T20:43:06.751Z,-1.17
2023-01-21T20:45:07.891Z,-1.12
2023-01-21T20:47:09.067Z,-1.12
2023-01-21T20:49:10.979Z,-1.13
2023-01-21T20:51:12.630Z,-1.12
2023-01-21T20:53:13.897Z,-1.12
2023-01-21T20:55:16.482Z,-1.12
2023-01-21T20:57:17.126Z,-1.11
2023-01-21T20:59:18.331Z,-1.1
2023-01-21T21:01:20.109Z,-1.08
2023-01-21T21:03:21.658Z,-1.11
2023-01-21T21:05:23.906Z,-1.13
2023-01-21T21:07:24.761Z,-1.08
2023-01-21T21:09:25.845Z,-1.11
2023-01-21T21:13:29.341Z,-1.11
2023-01-21T21:15:30.957Z,-1.13
2023-01-21T21:17:32.343Z,-1.12
2023-01-21T21:19:34.201Z,-1.15
2023-01-21T21:21:36.104Z,-1.1
2023-01-21T21:23:38.200Z,-1.12
2023-01-21T21:25:39.584Z,-1.12
2023-01-21T21:27:41.069Z,-1.15
2023-01-21T21:29:42.986Z,-1.11
2023-01-21T21:31:44.623Z,-1.11
2023-01-21T21:33:45.819Z,-1.11
2023-01-21T21:35:47.350Z,-1.12
2023-01-21T21:37:48.766Z,-1.07
2023-01-21T21:39:50.514Z,-1.09
2023-01-21T21:41:52.491Z,-1.06
2023-01-21T21:43:54.109Z,-1.08
2023-01-21T21:45:55.502Z,-1.08
2023-01-21T21:47:57.033Z,-1.06
2023-01-21T21:49:58.124Z,-1.06
2023-01-21T21:51:59.513Z,-1.03
2023-01-21T21:56:02.895Z,-1.03
2023-01-21T21:58:04.651Z,-1.06
2023-01-21T22:00:06.322Z,-1.09
2023-01-21T22:02:08.160Z,-1.05
2023-01-21T22:04:09.542Z,-1.08
2023-01-21T22:06:10.695Z,-1.11
2023-01-21T22:08:12.183Z,-1.07
2023-01-21T22:10:14.077Z,-1.08
2023-01-21T22:12:15.506Z,-1.08
2023-01-21T22:14:17.066Z,-1.11
2023-01-21T22:16:18.261Z,-1.07
2023-01-21T22:18:19.565Z,-1.12
2023-01-21T22:20:21.101Z,-1.09
2023-01-21T22:22:23.138Z,-1.11
2023-01-21T22:24:24.734Z,-1.1
2023-01-21T22:26:26.165Z,-1.05
2023-01-21T22:28:27.746Z,-1.08
2023-01-21T22:30:29.040Z,-1.1
2023-01-21T22:32:30.853Z,-1.08
2023-01-21T22:34:31.941Z,-1.09
2023-01-21T22:36:33.438Z,-1.11
2023-01-21T22:38:35.477Z,-1.12
2023-01-21T22:40:36.918Z,-1.11
2023-01-21T22:42:38.260Z,-1.11
2023-01-21T22:44:39.487Z,-1.13
2023-01-21T22:46:40.569Z,-1.11
2023-01-21T22:48:41.718Z,-1.1
2023-01-21T22:50:43.121Z,-1.07
2023-01-21T22:52:44.451Z,-1.09
2023-01-21T22:54:47.596Z,-1.12
2023-01-21T22:56:51.869Z,-1.13
2023-01-21T22:58:49.399Z,-1.13
2023-01-21T23:00:50.584Z,-1.11
2023-01-21T23:02:51.934Z,-1.11
2023-01-21T23:04:53.305Z,-1.12
2023-01-21T23:06:55.072Z,-1.13
2023-01-21T23:08:56.664Z,-1.13
2023-01-21T23:10:58.179Z,-1.12
2023-01-21T23:13:00.171Z,-1.14
2023-01-21T23:15:01.709Z,-1.14
2023-01-21T23:17:03.617Z,-1.13
2023-01-21T23:19:05.290Z,-1.15
2023-01-21T23:21:06.853Z,-1.15
2023-01-21T23:23:08.327Z,-1.13
2023-01-21T23:25:10.237Z,-1.1
2023-01-21T23:27:11.730Z,-1.11
2023-01-21T23:29:13.380Z,-1.09
2023-01-21T23:31:14.822Z,-1.11
2023-01-21T23:33:16.611Z,-1.11
2023-01-21T23:35:18.609Z,-1.1
2023-01-21T23:37:19.813Z,-1.05
2023-01-21T23:39:21.764Z,-1.03
2023-01-21T23:41:23.043Z,-0.98
2023-01-21T23:43:24.679Z,-1
2023-01-21T23:45:34.585Z,-1
2023-01-21T23:47:27.780Z,-0.96
2023-01-21T23:49:29.001Z,-0.99
2023-01-21T23:51:30.729Z,-0.98
2023-01-21T23:53:32.187Z,-0.95
2023-01-21T23:55:33.736Z,-0.96
2023-01-21T23:57:35.431Z,-0.94
2023-01-21T23:59:37.409Z,-0.96
